sensor_id;sensor_type;location;lat;lon;timestamp;P1;durP1;ratioP1;P2;durP2;ratioP2
13797;SDS011;6970;51.340;3.240;2023-05-07T00:00:24;18.60;;;14.83;;
13797;SDS011;6970;51.340;3.240;2023-05-07T00:02:55;17.20;;;15.40;;
13797;SDS011;6970;51.340;3.240;2023-05-07T00:07:53;16.27;;;14.30;;
13797;SDS011;6970;51.340;3.240;2023-05-07T00:10:21;15.00;;;13.43;;
13797;SDS011;6970;51.340;3.240;2023-05-07T00:12:49;16.27;;;14.63;;
13797;SDS011;6970;51.340;3.240;2023-05-07T00:15:18;16.07;;;14.07;;
13797;SDS011;6970;51.340;3.240;2023-05-07T00:17:48;17.23;;;14.20;;
13797;SDS011;6970;51.340;3.240;2023-05-07T00:22:46;17.00;;;15.20;;
13797;SDS011;6970;51.340;3.240;2023-05-07T00:25:13;14.43;;;12.90;;
13797;SDS011;6970;51.340;3.240;2023-05-07T00:27:47;17.03;;;14.00;;
13797;SDS011;6970;51.340;3.240;2023-05-07T00:32:45;18.43;;;14.67;;
13797;SDS011;6970;51.340;3.240;2023-05-07T00:35:12;20.53;;;14.90;;
13797;SDS011;6970;51.340;3.240;2023-05-07T00:37:39;16.73;;;14.23;;
13797;SDS011;6970;51.340;3.240;2023-05-07T00:40:06;16.90;;;12.97;;
13797;SDS011;6970;51.340;3.240;2023-05-07T00:42:37;16.63;;;14.33;;
13797;SDS011;6970;51.340;3.240;2023-05-07T00:45:04;15.63;;;14.13;;
13797;SDS011;6970;51.340;3.240;2023-05-07T00:47:33;16.40;;;14.57;;
13797;SDS011;6970;51.340;3.240;2023-05-07T00:50:00;16.37;;;13.47;;
13797;SDS011;6970;51.340;3.240;2023-05-07T00:52:29;16.00;;;14.40;;
13797;SDS011;6970;51.340;3.240;2023-05-07T00:54:56;22.97;;;15.37;;
13797;SDS011;6970;51.340;3.240;2023-05-07T00:57:24;16.50;;;14.73;;
13797;SDS011;6970;51.340;3.240;2023-05-07T01:02:22;17.07;;;15.33;;
13797;SDS011;6970;51.340;3.240;2023-05-07T01:04:50;16.03;;;14.63;;
13797;SDS011;6970;51.340;3.240;2023-05-07T01:07:19;20.83;;;15.47;;
13797;SDS011;6970;51.340;3.240;2023-05-07T01:09:47;16.77;;;14.33;;
13797;SDS011;6970;51.340;3.240;2023-05-07T01:12:14;19.93;;;16.07;;
13797;SDS011;6970;51.340;3.240;2023-05-07T01:14:43;16.20;;;14.47;;
13797;SDS011;6970;51.340;3.240;2023-05-07T01:17:10;17.33;;;14.50;;
13797;SDS011;6970;51.340;3.240;2023-05-07T01:22:09;19.53;;;15.63;;
13797;SDS011;6970;51.340;3.240;2023-05-07T01:24:41;16.40;;;14.77;;
13797;SDS011;6970;51.340;3.240;2023-05-07T01:27:08;19.17;;;15.20;;
13797;SDS011;6970;51.340;3.240;2023-05-07T01:29:37;16.90;;;15.10;;
13797;SDS011;6970;51.340;3.240;2023-05-07T01:32:04;22.77;;;16.30;;
13797;SDS011;6970;51.340;3.240;2023-05-07T01:34:35;17.83;;;14.90;;
13797;SDS011;6970;51.340;3.240;2023-05-07T01:37:09;16.27;;;14.67;;
13797;SDS011;6970;51.340;3.240;2023-05-07T01:42:09;17.00;;;14.87;;
13797;SDS011;6970;51.340;3.240;2023-05-07T01:49:37;16.47;;;14.67;;
13797;SDS011;6970;51.340;3.240;2023-05-07T01:52:08;14.73;;;13.33;;
13797;SDS011;6970;51.340;3.240;2023-05-07T01:54:40;19.10;;;15.30;;
13797;SDS011;6970;51.340;3.240;2023-05-07T01:59:40;17.53;;;15.80;;
13797;SDS011;6970;51.340;3.240;2023-05-07T02:02:09;18.17;;;14.90;;
13797;SDS011;6970;51.340;3.240;2023-05-07T02:04:36;16.23;;;14.60;;
13797;SDS011;6970;51.340;3.240;2023-05-07T02:07:03;19.47;;;15.50;;
13797;SDS011;6970;51.340;3.240;2023-05-07T02:09:31;18.20;;;15.90;;
13797;SDS011;6970;51.340;3.240;2023-05-07T02:14:31;16.47;;;14.77;;
13797;SDS011;6970;51.340;3.240;2023-05-07T02:16:59;17.53;;;14.33;;
13797;SDS011;6970;51.340;3.240;2023-05-07T02:19:26;16.67;;;15.07;;
13797;SDS011;6970;51.340;3.240;2023-05-07T02:21:57;19.27;;;16.40;;
13797;SDS011;6970;51.340;3.240;2023-05-07T02:24:30;19.73;;;15.13;;
13797;SDS011;6970;51.340;3.240;2023-05-07T02:27:00;20.03;;;17.47;;
13797;SDS011;6970;51.340;3.240;2023-05-07T02:29:27;19.80;;;15.67;;
13797;SDS011;6970;51.340;3.240;2023-05-07T02:31:57;17.23;;;15.57;;
13797;SDS011;6970;51.340;3.240;2023-05-07T02:34:27;20.93;;;15.93;;
13797;SDS011;6970;51.340;3.240;2023-05-07T02:36:55;18.27;;;14.67;;
13797;SDS011;6970;51.340;3.240;2023-05-07T02:39:25;17.43;;;15.83;;
13797;SDS011;6970;51.340;3.240;2023-05-07T02:41:54;20.77;;;14.63;;
13797;SDS011;6970;51.340;3.240;2023-05-07T02:44:23;17.17;;;15.37;;
13797;SDS011;6970;51.340;3.240;2023-05-07T02:46:56;16.67;;;15.13;;
13797;SDS011;6970;51.340;3.240;2023-05-07T02:49:24;17.17;;;15.33;;
13797;SDS011;6970;51.340;3.240;2023-05-07T02:51:52;20.53;;;15.60;;
13797;SDS011;6970;51.340;3.240;2023-05-07T02:54:20;17.97;;;15.33;;
13797;SDS011;6970;51.340;3.240;2023-05-07T02:56:47;17.67;;;15.77;;
13797;SDS011;6970;51.340;3.240;2023-05-07T02:59:17;19.67;;;16.07;;
13797;SDS011;6970;51.340;3.240;2023-05-07T03:01:47;19.53;;;16.63;;
13797;SDS011;6970;51.340;3.240;2023-05-07T03:04:17;18.03;;;15.90;;
13797;SDS011;6970;51.340;3.240;2023-05-07T03:06:45;16.13;;;14.43;;
13797;SDS011;6970;51.340;3.240;2023-05-07T03:09:14;17.03;;;15.23;;
13797;SDS011;6970;51.340;3.240;2023-05-07T03:11:42;18.30;;;16.17;;
13797;SDS011;6970;51.340;3.240;2023-05-07T03:14:11;18.13;;;16.30;;
13797;SDS011;6970;51.340;3.240;2023-05-07T03:16:39;16.27;;;14.50;;
13797;SDS011;6970;51.340;3.240;2023-05-07T03:21:36;18.57;;;16.23;;
13797;SDS011;6970;51.340;3.240;2023-05-07T03:24:05;19.73;;;16.20;;
13797;SDS011;6970;51.340;3.240;2023-05-07T03:26:35;19.53;;;16.53;;
13797;SDS011;6970;51.340;3.240;2023-05-07T03:31:35;20.40;;;17.00;;
13797;SDS011;6970;51.340;3.240;2023-05-07T03:34:03;17.80;;;16.10;;
13797;SDS011;6970;51.340;3.240;2023-05-07T03:36:32;19.87;;;17.13;;
13797;SDS011;6970;51.340;3.240;2023-05-07T03:39:01;19.57;;;17.57;;
13797;SDS011;6970;51.340;3.240;2023-05-07T03:41:30;18.70;;;16.13;;
13797;SDS011;6970;51.340;3.240;2023-05-07T03:43:59;19.03;;;16.40;;
13797;SDS011;6970;51.340;3.240;2023-05-07T03:46:26;18.40;;;16.47;;
13797;SDS011;6970;51.340;3.240;2023-05-07T03:48:54;19.70;;;17.67;;
13797;SDS011;6970;51.340;3.240;2023-05-07T03:53:55;21.70;;;17.30;;
13797;SDS011;6970;51.340;3.240;2023-05-07T03:56:23;17.57;;;15.67;;
13797;SDS011;6970;51.340;3.240;2023-05-07T03:58:53;17.97;;;14.87;;
13797;SDS011;6970;51.340;3.240;2023-05-07T04:01:22;17.70;;;15.13;;
13797;SDS011;6970;51.340;3.240;2023-05-07T04:03:49;16.50;;;14.70;;
13797;SDS011;6970;51.340;3.240;2023-05-07T04:06:16;17.27;;;15.47;;
13797;SDS011;6970;51.340;3.240;2023-05-07T04:08:43;17.63;;;15.83;;
13797;SDS011;6970;51.340;3.240;2023-05-07T04:11:10;18.17;;;16.37;;
13797;SDS011;6970;51.340;3.240;2023-05-07T04:13:38;18.30;;;16.53;;
13797;SDS011;6970;51.340;3.240;2023-05-07T04:16:09;17.77;;;16.07;;
13797;SDS011;6970;51.340;3.240;2023-05-07T04:18:39;16.73;;;15.00;;
13797;SDS011;6970;51.340;3.240;2023-05-07T04:21:16;16.87;;;14.63;;
13797;SDS011;6970;51.340;3.240;2023-05-07T04:26:17;25.83;;;15.63;;
13797;SDS011;6970;51.340;3.240;2023-05-07T04:28:44;18.70;;;15.73;;
13797;SDS011;6970;51.340;3.240;2023-05-07T04:31:13;18.37;;;16.07;;
13797;SDS011;6970;51.340;3.240;2023-05-07T04:33:42;20.03;;;15.73;;
13797;SDS011;6970;51.340;3.240;2023-05-07T04:36:12;16.50;;;14.90;;
13797;SDS011;6970;51.340;3.240;2023-05-07T04:38:40;21.67;;;15.07;;
13797;SDS011;6970;51.340;3.240;2023-05-07T04:43:41;17.57;;;14.87;;
13797;SDS011;6970;51.340;3.240;2023-05-07T04:46:15;18.13;;;13.50;;
13797;SDS011;6970;51.340;3.240;2023-05-07T04:48:42;16.13;;;14.53;;
13797;SDS011;6970;51.340;3.240;2023-05-07T04:56:12;16.77;;;14.67;;
13797;SDS011;6970;51.340;3.240;2023-05-07T04:58:39;18.40;;;13.87;;
13797;SDS011;6970;51.340;3.240;2023-05-07T05:01:08;14.53;;;13.13;;
13797;SDS011;6970;51.340;3.240;2023-05-07T05:03:36;14.37;;;12.97;;
13797;SDS011;6970;51.340;3.240;2023-05-07T05:06:04;14.77;;;13.37;;
13797;SDS011;6970;51.340;3.240;2023-05-07T05:08:32;14.30;;;12.70;;
13797;SDS011;6970;51.340;3.240;2023-05-07T05:13:32;15.80;;;13.27;;
13797;SDS011;6970;51.340;3.240;2023-05-07T05:18:32;16.83;;;12.30;;
13797;SDS011;6970;51.340;3.240;2023-05-07T05:20:59;17.73;;;13.23;;
13797;SDS011;6970;51.340;3.240;2023-05-07T05:23:27;13.13;;;11.87;;
13797;SDS011;6970;51.340;3.240;2023-05-07T05:26:03;13.90;;;12.47;;
13797;SDS011;6970;51.340;3.240;2023-05-07T05:31:04;15.57;;;13.10;;
13797;SDS011;6970;51.340;3.240;2023-05-07T05:33:33;17.03;;;13.00;;
13797;SDS011;6970;51.340;3.240;2023-05-07T05:36:04;15.30;;;13.70;;
13797;SDS011;6970;51.340;3.240;2023-05-07T05:38:33;15.07;;;13.53;;
13797;SDS011;6970;51.340;3.240;2023-05-07T05:41:00;15.13;;;13.10;;
13797;SDS011;6970;51.340;3.240;2023-05-07T05:43:30;15.43;;;13.13;;
13797;SDS011;6970;51.340;3.240;2023-05-07T05:45:57;13.27;;;11.83;;
13797;SDS011;6970;51.340;3.240;2023-05-07T05:48:26;13.87;;;12.40;;
13797;SDS011;6970;51.340;3.240;2023-05-07T05:53:25;13.37;;;12.17;;
13797;SDS011;6970;51.340;3.240;2023-05-07T05:58:22;13.27;;;11.40;;
13797;SDS011;6970;51.340;3.240;2023-05-07T06:03:20;13.90;;;11.23;;
13797;SDS011;6970;51.340;3.240;2023-05-07T06:08:20;14.23;;;12.80;;
13797;SDS011;6970;51.340;3.240;2023-05-07T06:13:18;13.53;;;12.13;;
13797;SDS011;6970;51.340;3.240;2023-05-07T06:15:49;14.83;;;11.67;;
13797;SDS011;6970;51.340;3.240;2023-05-07T06:20:46;16.27;;;13.03;;
13797;SDS011;6970;51.340;3.240;2023-05-07T06:23:15;20.90;;;14.00;;
13797;SDS011;6970;51.340;3.240;2023-05-07T06:25:48;15.50;;;12.87;;
13797;SDS011;6970;51.340;3.240;2023-05-07T06:28:19;13.77;;;12.43;;
13797;SDS011;6970;51.340;3.240;2023-05-07T06:30:46;14.17;;;12.60;;
13797;SDS011;6970;51.340;3.240;2023-05-07T06:33:18;13.13;;;11.93;;
13797;SDS011;6970;51.340;3.240;2023-05-07T06:35:47;13.37;;;11.97;;
13797;SDS011;6970;51.340;3.240;2023-05-07T06:38:17;15.17;;;13.63;;
13797;SDS011;6970;51.340;3.240;2023-05-07T06:40:47;13.60;;;11.77;;
13797;SDS011;6970;51.340;3.240;2023-05-07T06:43:18;14.37;;;11.43;;
13797;SDS011;6970;51.340;3.240;2023-05-07T06:45:46;14.13;;;12.63;;
13797;SDS011;6970;51.340;3.240;2023-05-07T06:48:13;13.10;;;11.73;;
13797;SDS011;6970;51.340;3.240;2023-05-07T06:50:43;12.97;;;10.60;;
13797;SDS011;6970;51.340;3.240;2023-05-07T06:55:40;14.73;;;11.00;;
13797;SDS011;6970;51.340;3.240;2023-05-07T06:58:08;12.70;;;9.93;;
13797;SDS011;6970;51.340;3.240;2023-05-07T07:00:37;13.87;;;10.93;;
13797;SDS011;6970;51.340;3.240;2023-05-07T07:03:04;12.63;;;11.17;;
13797;SDS011;6970;51.340;3.240;2023-05-07T07:05:31;14.20;;;9.70;;
13797;SDS011;6970;51.340;3.240;2023-05-07T07:07:58;11.37;;;10.03;;
13797;SDS011;6970;51.340;3.240;2023-05-07T07:12:58;10.87;;;9.53;;
13797;SDS011;6970;51.340;3.240;2023-05-07T07:15:29;8.83;;;8.10;;
13797;SDS011;6970;51.340;3.240;2023-05-07T07:17:58;10.80;;;8.10;;
13797;SDS011;6970;51.340;3.240;2023-05-07T07:20:25;10.13;;;7.80;;
13797;SDS011;6970;51.340;3.240;2023-05-07T07:25:22;11.13;;;9.70;;
13797;SDS011;6970;51.340;3.240;2023-05-07T07:27:50;12.13;;;8.70;;
13797;SDS011;6970;51.340;3.240;2023-05-07T07:30:19;12.33;;;8.57;;
13797;SDS011;6970;51.340;3.240;2023-05-07T07:32:47;9.40;;;8.10;;
13797;SDS011;6970;51.340;3.240;2023-05-07T07:35:14;11.17;;;8.57;;
13797;SDS011;6970;51.340;3.240;2023-05-07T07:37:42;8.20;;;6.90;;
13797;SDS011;6970;51.340;3.240;2023-05-07T07:40:09;9.27;;;7.57;;
13797;SDS011;6970;51.340;3.240;2023-05-07T07:42:38;9.23;;;7.20;;
13797;SDS011;6970;51.340;3.240;2023-05-07T07:45:07;9.77;;;7.97;;
13797;SDS011;6970;51.340;3.240;2023-05-07T07:50:05;10.00;;;7.80;;
13797;SDS011;6970;51.340;3.240;2023-05-07T07:52:39;9.77;;;7.20;;
13797;SDS011;6970;51.340;3.240;2023-05-07T07:55:07;12.20;;;8.00;;
13797;SDS011;6970;51.340;3.240;2023-05-07T07:57:34;8.43;;;6.73;;
13797;SDS011;6970;51.340;3.240;2023-05-07T08:00:03;8.23;;;7.17;;
13797;SDS011;6970;51.340;3.240;2023-05-07T08:02:33;10.40;;;7.87;;
13797;SDS011;6970;51.340;3.240;2023-05-07T08:07:31;9.67;;;7.20;;
13797;SDS011;6970;51.340;3.240;2023-05-07T08:09:59;8.23;;;6.87;;
13797;SDS011;6970;51.340;3.240;2023-05-07T08:17:28;9.20;;;8.30;;
13797;SDS011;6970;51.340;3.240;2023-05-07T08:19:55;8.77;;;7.77;;
13797;SDS011;6970;51.340;3.240;2023-05-07T08:22:25;9.73;;;7.47;;
13797;SDS011;6970;51.340;3.240;2023-05-07T08:24:52;13.00;;;8.27;;
13797;SDS011;6970;51.340;3.240;2023-05-07T08:27:21;11.13;;;8.30;;
13797;SDS011;6970;51.340;3.240;2023-05-07T08:29:51;9.80;;;8.80;;
13797;SDS011;6970;51.340;3.240;2023-05-07T08:32:18;11.87;;;9.13;;
13797;SDS011;6970;51.340;3.240;2023-05-07T08:34:47;11.90;;;10.43;;
13797;SDS011;6970;51.340;3.240;2023-05-07T08:37:16;11.03;;;9.30;;
13797;SDS011;6970;51.340;3.240;2023-05-07T08:39:43;12.03;;;10.73;;
13797;SDS011;6970;51.340;3.240;2023-05-07T08:44:42;12.27;;;10.50;;
13797;SDS011;6970;51.340;3.240;2023-05-07T08:47:13;13.33;;;11.77;;
13797;SDS011;6970;51.340;3.240;2023-05-07T08:49:40;11.77;;;9.80;;
13797;SDS011;6970;51.340;3.240;2023-05-07T08:52:11;15.53;;;10.37;;
13797;SDS011;6970;51.340;3.240;2023-05-07T08:54:42;12.17;;;10.30;;
13797;SDS011;6970;51.340;3.240;2023-05-07T08:59:43;13.30;;;10.77;;
13797;SDS011;6970;51.340;3.240;2023-05-07T09:02:12;11.30;;;10.07;;
13797;SDS011;6970;51.340;3.240;2023-05-07T09:04:39;14.47;;;11.10;;
13797;SDS011;6970;51.340;3.240;2023-05-07T09:07:06;12.50;;;11.20;;
13797;SDS011;6970;51.340;3.240;2023-05-07T09:09:36;14.40;;;10.73;;
13797;SDS011;6970;51.340;3.240;2023-05-07T09:12:03;11.77;;;10.53;;
13797;SDS011;6970;51.340;3.240;2023-05-07T09:17:02;12.37;;;10.43;;
13797;SDS011;6970;51.340;3.240;2023-05-07T09:22:03;10.93;;;8.93;;
13797;SDS011;6970;51.340;3.240;2023-05-07T09:24:34;10.80;;;8.07;;
13797;SDS011;6970;51.340;3.240;2023-05-07T09:27:10;10.30;;;7.80;;
13797;SDS011;6970;51.340;3.240;2023-05-07T09:32:12;10.10;;;9.07;;
13797;SDS011;6970;51.340;3.240;2023-05-07T09:34:40;14.47;;;9.60;;
13797;SDS011;6970;51.340;3.240;2023-05-07T09:37:08;10.20;;;8.50;;
13797;SDS011;6970;51.340;3.240;2023-05-07T09:47:19;12.13;;;9.30;;
13797;SDS011;6970;51.340;3.240;2023-05-07T09:49:55;12.40;;;9.97;;
13797;SDS011;6970;51.340;3.240;2023-05-07T09:52:29;12.90;;;10.50;;
13797;SDS011;6970;51.340;3.240;2023-05-07T09:55:01;12.77;;;10.03;;
13797;SDS011;6970;51.340;3.240;2023-05-07T09:57:30;15.57;;;11.50;;
13797;SDS011;6970;51.340;3.240;2023-05-07T10:00:03;13.23;;;9.67;;
13797;SDS011;6970;51.340;3.240;2023-05-07T10:02:32;14.37;;;10.50;;
13797;SDS011;6970;51.340;3.240;2023-05-07T10:05:04;11.70;;;9.97;;
13797;SDS011;6970;51.340;3.240;2023-05-07T10:07:32;10.83;;;8.80;;
13797;SDS011;6970;51.340;3.240;2023-05-07T10:09:59;12.77;;;8.27;;
13797;SDS011;6970;51.340;3.240;2023-05-07T10:12:27;15.33;;;9.47;;
13797;SDS011;6970;51.340;3.240;2023-05-07T10:14:55;10.63;;;9.17;;
13797;SDS011;6970;51.340;3.240;2023-05-07T10:19:56;8.30;;;7.30;;
13797;SDS011;6970;51.340;3.240;2023-05-07T10:22:23;10.53;;;7.73;;
13797;SDS011;6970;51.340;3.240;2023-05-07T10:24:54;11.73;;;8.63;;
13797;SDS011;6970;51.340;3.240;2023-05-07T10:27:25;11.67;;;8.17;;
13797;SDS011;6970;51.340;3.240;2023-05-07T10:32:52;11.27;;;8.43;;
13797;SDS011;6970;51.340;3.240;2023-05-07T10:37:57;19.60;;;17.63;;
13797;SDS011;6970;51.340;3.240;2023-05-07T10:40:27;16.40;;;14.47;;
13797;SDS011;6970;51.340;3.240;2023-05-07T10:42:58;18.53;;;12.53;;
13797;SDS011;6970;51.340;3.240;2023-05-07T10:45:28;13.43;;;10.23;;
13797;SDS011;6970;51.340;3.240;2023-05-07T10:48:10;10.57;;;9.47;;
13797;SDS011;6970;51.340;3.240;2023-05-07T10:56:47;10.17;;;7.23;;
13797;SDS011;6970;51.340;3.240;2023-05-07T10:59:33;10.63;;;7.20;;
13797;SDS011;6970;51.340;3.240;2023-05-07T11:02:07;11.43;;;10.23;;
13797;SDS011;6970;51.340;3.240;2023-05-07T11:04:36;14.83;;;11.30;;
13797;SDS011;6970;51.340;3.240;2023-05-07T11:13:04;11.20;;;9.50;;
13797;SDS011;6970;51.340;3.240;2023-05-07T11:17:53;10.20;;;8.10;;
13797;SDS011;6970;51.340;3.240;2023-05-07T11:26:04;12.03;;;9.70;;
13797;SDS011;6970;51.340;3.240;2023-05-07T11:28:41;11.80;;;9.23;;
13797;SDS011;6970;51.340;3.240;2023-05-07T11:31:12;10.10;;;8.83;;
13797;SDS011;6970;51.340;3.240;2023-05-07T11:36:10;13.17;;;8.90;;
13797;SDS011;6970;51.340;3.240;2023-05-07T11:38:39;11.67;;;9.13;;
13797;SDS011;6970;51.340;3.240;2023-05-07T11:41:06;11.27;;;8.87;;
13797;SDS011;6970;51.340;3.240;2023-05-07T11:46:07;10.73;;;9.60;;
13797;SDS011;6970;51.340;3.240;2023-05-07T11:48:36;12.10;;;10.40;;
13797;SDS011;6970;51.340;3.240;2023-05-07T11:51:05;12.83;;;9.77;;
13797;SDS011;6970;51.340;3.240;2023-05-07T11:53:37;13.00;;;8.97;;
13797;SDS011;6970;51.340;3.240;2023-05-07T11:56:09;13.13;;;11.57;;
13797;SDS011;6970;51.340;3.240;2023-05-07T12:01:10;20.23;;;15.13;;
13797;SDS011;6970;51.340;3.240;2023-05-07T12:03:42;19.97;;;14.37;;
13797;SDS011;6970;51.340;3.240;2023-05-07T12:06:14;16.43;;;14.40;;
13797;SDS011;6970;51.340;3.240;2023-05-07T12:08:46;17.03;;;14.77;;
13797;SDS011;6970;51.340;3.240;2023-05-07T12:11:22;19.00;;;15.23;;
13797;SDS011;6970;51.340;3.240;2023-05-07T12:13:51;17.60;;;15.20;;
13797;SDS011;6970;51.340;3.240;2023-05-07T12:16:24;18.17;;;15.27;;
13797;SDS011;6970;51.340;3.240;2023-05-07T12:18:54;15.00;;;13.50;;
13797;SDS011;6970;51.340;3.240;2023-05-07T12:21:25;17.63;;;14.60;;
13797;SDS011;6970;51.340;3.240;2023-05-07T12:23:52;18.63;;;14.87;;
13797;SDS011;6970;51.340;3.240;2023-05-07T12:26:19;17.40;;;14.03;;
13797;SDS011;6970;51.340;3.240;2023-05-07T12:28:47;14.47;;;11.73;;
13797;SDS011;6970;51.340;3.240;2023-05-07T12:31:20;11.57;;;10.23;;
13797;SDS011;6970;51.340;3.240;2023-05-07T12:33:50;11.80;;;10.20;;
13797;SDS011;6970;51.340;3.240;2023-05-07T12:36:19;14.63;;;10.77;;
13797;SDS011;6970;51.340;3.240;2023-05-07T12:41:18;10.97;;;8.70;;
13797;SDS011;6970;51.340;3.240;2023-05-07T12:43:56;10.87;;;9.13;;
13797;SDS011;6970;51.340;3.240;2023-05-07T12:46:26;9.77;;;8.77;;
13797;SDS011;6970;51.340;3.240;2023-05-07T12:51:24;9.73;;;8.70;;
13797;SDS011;6970;51.340;3.240;2023-05-07T12:53:52;13.33;;;10.00;;
13797;SDS011;6970;51.340;3.240;2023-05-07T12:56:23;11.67;;;10.13;;
13797;SDS011;6970;51.340;3.240;2023-05-07T12:58:51;10.53;;;9.00;;
13797;SDS011;6970;51.340;3.240;2023-05-07T13:01:20;12.70;;;9.17;;
13797;SDS011;6970;51.340;3.240;2023-05-07T13:03:49;10.70;;;7.67;;
13797;SDS011;6970;51.340;3.240;2023-05-07T13:06:19;9.23;;;7.73;;
13797;SDS011;6970;51.340;3.240;2023-05-07T13:08:47;8.63;;;7.73;;
13797;SDS011;6970;51.340;3.240;2023-05-07T13:11:15;11.17;;;10.00;;
13797;SDS011;6970;51.340;3.240;2023-05-07T13:16:13;13.17;;;11.03;;
13797;SDS011;6970;51.340;3.240;2023-05-07T13:18:40;10.20;;;9.00;;
13797;SDS011;6970;51.340;3.240;2023-05-07T13:21:12;11.53;;;8.53;;
13797;SDS011;6970;51.340;3.240;2023-05-07T13:23:40;14.47;;;12.73;;
13797;SDS011;6970;51.340;3.240;2023-05-07T13:26:10;15.63;;;13.50;;
13797;SDS011;6970;51.340;3.240;2023-05-07T13:28:54;22.03;;;19.07;;
13797;SDS011;6970;51.340;3.240;2023-05-07T13:33:52;18.43;;;16.53;;
13797;SDS011;6970;51.340;3.240;2023-05-07T13:36:25;14.83;;;13.30;;
13797;SDS011;6970;51.340;3.240;2023-05-07T13:38:54;13.53;;;11.57;;
13797;SDS011;6970;51.340;3.240;2023-05-07T13:41:21;12.23;;;9.83;;
13797;SDS011;6970;51.340;3.240;2023-05-07T13:43:48;11.40;;;8.90;;
13797;SDS011;6970;51.340;3.240;2023-05-07T13:46:17;13.07;;;9.17;;
13797;SDS011;6970;51.340;3.240;2023-05-07T13:48:44;10.60;;;8.97;;
13797;SDS011;6970;51.340;3.240;2023-05-07T13:51:11;10.67;;;9.67;;
13797;SDS011;6970;51.340;3.240;2023-05-07T13:53:39;14.80;;;13.20;;
13797;SDS011;6970;51.340;3.240;2023-05-07T13:58:36;15.70;;;13.87;;
13797;SDS011;6970;51.340;3.240;2023-05-07T14:01:13;15.30;;;13.03;;
13797;SDS011;6970;51.340;3.240;2023-05-07T14:03:42;16.53;;;14.77;;
13797;SDS011;6970;51.340;3.240;2023-05-07T14:06:11;18.30;;;13.97;;
13797;SDS011;6970;51.340;3.240;2023-05-07T14:08:38;19.37;;;15.30;;
13797;SDS011;6970;51.340;3.240;2023-05-07T14:18:35;12.17;;;10.97;;
13797;SDS011;6970;51.340;3.240;2023-05-07T14:21:04;14.07;;;11.87;;
13797;SDS011;6970;51.340;3.240;2023-05-07T14:23:35;17.50;;;15.70;;
13797;SDS011;6970;51.340;3.240;2023-05-07T14:26:08;14.43;;;11.87;;
13797;SDS011;6970;51.340;3.240;2023-05-07T14:28:49;21.73;;;15.17;;
13797;SDS011;6970;51.340;3.240;2023-05-07T14:38:53;18.37;;;14.40;;
13797;SDS011;6970;51.340;3.240;2023-05-07T14:41:24;14.97;;;13.50;;
13797;SDS011;6970;51.340;3.240;2023-05-07T14:43:53;17.93;;;16.03;;
13797;SDS011;6970;51.340;3.240;2023-05-07T14:48:54;17.10;;;15.30;;
13797;SDS011;6970;51.340;3.240;2023-05-07T14:53:53;15.70;;;14.23;;
13797;SDS011;6970;51.340;3.240;2023-05-07T14:56:22;17.13;;;15.63;;
13797;SDS011;6970;51.340;3.240;2023-05-07T14:58:49;16.63;;;14.97;;
13797;SDS011;6970;51.340;3.240;2023-05-07T15:01:19;16.93;;;15.20;;
13797;SDS011;6970;51.340;3.240;2023-05-07T15:03:49;15.97;;;14.27;;
13797;SDS011;6970;51.340;3.240;2023-05-07T15:06:23;18.03;;;16.13;;
13797;SDS011;6970;51.340;3.240;2023-05-07T15:08:50;17.80;;;16.00;;
13797;SDS011;6970;51.340;3.240;2023-05-07T15:11:18;17.67;;;15.60;;
13797;SDS011;6970;51.340;3.240;2023-05-07T15:13:51;16.53;;;14.97;;
13797;SDS011;6970;51.340;3.240;2023-05-07T15:16:24;16.87;;;15.30;;
13797;SDS011;6970;51.340;3.240;2023-05-07T15:18:52;19.97;;;17.30;;
13797;SDS011;6970;51.340;3.240;2023-05-07T15:21:20;17.43;;;15.70;;
13797;SDS011;6970;51.340;3.240;2023-05-07T15:23:49;19.07;;;17.17;;
13797;SDS011;6970;51.340;3.240;2023-05-07T15:28:48;19.10;;;17.13;;
13797;SDS011;6970;51.340;3.240;2023-05-07T15:31:18;22.47;;;16.50;;
13797;SDS011;6970;51.340;3.240;2023-05-07T15:33:45;18.10;;;16.40;;
13797;SDS011;6970;51.340;3.240;2023-05-07T15:36:15;15.90;;;14.20;;
13797;SDS011;6970;51.340;3.240;2023-05-07T15:38:42;17.40;;;15.90;;
13797;SDS011;6970;51.340;3.240;2023-05-07T15:41:11;17.80;;;16.00;;
13797;SDS011;6970;51.340;3.240;2023-05-07T15:43:44;16.00;;;14.57;;
13797;SDS011;6970;51.340;3.240;2023-05-07T15:46:23;14.53;;;13.23;;
13797;SDS011;6970;51.340;3.240;2023-05-07T15:48:52;16.47;;;15.07;;
13797;SDS011;6970;51.340;3.240;2023-05-07T15:51:20;17.23;;;15.53;;
13797;SDS011;6970;51.340;3.240;2023-05-07T15:56:21;16.70;;;15.00;;
13797;SDS011;6970;51.340;3.240;2023-05-07T16:03:54;16.17;;;14.60;;
13797;SDS011;6970;51.340;3.240;2023-05-07T16:08:53;18.47;;;16.47;;
13797;SDS011;6970;51.340;3.240;2023-05-07T16:11:20;19.47;;;16.87;;
13797;SDS011;6970;51.340;3.240;2023-05-07T16:13:47;14.17;;;12.30;;
13797;SDS011;6970;51.340;3.240;2023-05-07T16:16:16;15.07;;;13.50;;
13797;SDS011;6970;51.340;3.240;2023-05-07T16:18:44;16.10;;;12.57;;
13797;SDS011;6970;51.340;3.240;2023-05-07T16:23:41;16.43;;;13.43;;
13797;SDS011;6970;51.340;3.240;2023-05-07T16:26:10;14.90;;;12.57;;
13797;SDS011;6970;51.340;3.240;2023-05-07T16:28:39;12.63;;;11.33;;
13797;SDS011;6970;51.340;3.240;2023-05-07T16:31:07;20.70;;;13.63;;
13797;SDS011;6970;51.340;3.240;2023-05-07T16:33:34;16.23;;;12.73;;
13797;SDS011;6970;51.340;3.240;2023-05-07T16:36:02;13.07;;;11.13;;
13797;SDS011;6970;51.340;3.240;2023-05-07T16:38:29;15.30;;;12.67;;
13797;SDS011;6970;51.340;3.240;2023-05-07T16:40:58;15.30;;;12.60;;
13797;SDS011;6970;51.340;3.240;2023-05-07T16:43:26;14.47;;;13.00;;
13797;SDS011;6970;51.340;3.240;2023-05-07T16:45:54;15.20;;;13.60;;
13797;SDS011;6970;51.340;3.240;2023-05-07T16:48:22;14.27;;;12.77;;
13797;SDS011;6970;51.340;3.240;2023-05-07T16:50:49;19.73;;;14.03;;
13797;SDS011;6970;51.340;3.240;2023-05-07T16:53:16;15.67;;;13.00;;
13797;SDS011;6970;51.340;3.240;2023-05-07T16:55:44;13.60;;;12.17;;
13797;SDS011;6970;51.340;3.240;2023-05-07T16:58:11;16.00;;;12.77;;
13797;SDS011;6970;51.340;3.240;2023-05-07T17:00:39;15.20;;;13.30;;
13797;SDS011;6970;51.340;3.240;2023-05-07T17:03:17;18.00;;;13.10;;
13797;SDS011;6970;51.340;3.240;2023-05-07T17:05:48;16.87;;;13.80;;
13797;SDS011;6970;51.340;3.240;2023-05-07T17:08:14;16.93;;;15.27;;
13797;SDS011;6970;51.340;3.240;2023-05-07T17:10:43;19.03;;;16.67;;
13797;SDS011;6970;51.340;3.240;2023-05-07T17:13:12;15.83;;;14.33;;
13797;SDS011;6970;51.340;3.240;2023-05-07T17:15:39;15.40;;;13.27;;
13797;SDS011;6970;51.340;3.240;2023-05-07T17:18:09;17.10;;;14.63;;
13797;SDS011;6970;51.340;3.240;2023-05-07T17:20:39;19.43;;;15.30;;
13797;SDS011;6970;51.340;3.240;2023-05-07T17:25:36;17.50;;;13.20;;
13797;SDS011;6970;51.340;3.240;2023-05-07T17:28:05;16.67;;;14.17;;
13797;SDS011;6970;51.340;3.240;2023-05-07T17:30:32;15.77;;;14.07;;
13797;SDS011;6970;51.340;3.240;2023-05-07T17:32:59;18.63;;;14.63;;
13797;SDS011;6970;51.340;3.240;2023-05-07T17:38:11;16.47;;;14.77;;
13797;SDS011;6970;51.340;3.240;2023-05-07T17:40:39;19.67;;;14.67;;
13797;SDS011;6970;51.340;3.240;2023-05-07T17:43:09;19.10;;;14.80;;
13797;SDS011;6970;51.340;3.240;2023-05-07T17:45:38;20.83;;;15.03;;
13797;SDS011;6970;51.340;3.240;2023-05-07T17:48:06;20.90;;;15.63;;
13797;SDS011;6970;51.340;3.240;2023-05-07T17:50:34;18.83;;;14.63;;
13797;SDS011;6970;51.340;3.240;2023-05-07T17:53:02;17.40;;;14.63;;
13797;SDS011;6970;51.340;3.240;2023-05-07T17:55:33;19.87;;;14.50;;
13797;SDS011;6970;51.340;3.240;2023-05-07T18:00:38;17.20;;;13.67;;
13797;SDS011;6970;51.340;3.240;2023-05-07T18:03:08;16.07;;;14.47;;